Back to top

Casper, WY weather

Natrona County International Airport, Casper, WY: 7/22/2019 13:53
Visibility10 statute milesclear sky
View 7-Day Forecast
Area Summary
Sky/CloudsSky Clear
Weather [last 24 hours]None
Pressure30.27 in.Hg (1025 hPa)
Dew Point53.1 °F (11.7 °C)
Relative Humidity32.5 %
Temperature86 °F (30 °C)red thermometer
Reading TimeMinimum to Maximum Temperature
6-hr ending 7/22@11:5355 °F to 80.1 °F (12.8 °C to 26.7 °C)
6-hr ending 7/22@05:5355 °F to 64.9 °F (12.8 °C to 18.3 °C)
6-hr ending 7/21@23:5364.9 °F to 82 °F (18.3 °C to 27.8 °C)
6-hr ending 7/21@17:5368 °F to 82.9 °F (20 °C to 28.3 °C)
24-hr ending 7/22@00:5350 °F to 82.9 °F (10 °C to 28.3 °C)
Wind8.06 MPH (7 KT) green arrow pointing 45 degrees
Wind FromNortheast (050 Degrees)
Twilight Begins05:13Sunshine Yesterday
Sunrise05:46N/A
Sunset20:38
Twilight Ends21:11
METARKCPR 221953Z 05007KT 10SM CLR 30/12 A3027 RMK AO2 SLP180 T03000117
Tags: